DAAT/TMR METAR and TAF weather

Enter ICAO airport designator
Station Type Date Time Source
DAAT METAR 2020/08/15 11:00 UTC NOAA

DAAT 151100Z 10016KT CAVOK 35/04 Q1020


Station Type Date Time Source
DAAT Decoded METAR 2020/08/15 11:00 UTC NOAA

Tamanrasset / Aguenna, Algeria (DAAT) 22-49N 005-28E
Aug 15, 2020 - 07:00 AM EDT / 2020.08.15 1100 UTC
Wind: from the E (100 degrees) at 18 MPH (16 KT):0
Visibility: greater than 7 mile(s):0
Temperature: 95 F (35 C)
Dew Point: 39 F (4 C)
Relative Humidity: 14%
Pressure (altimeter): 30.12 in. Hg (1020 hPa)
ob: DAAT 151100Z 10016KT CAVOK 35/04 Q1020
cycle: 11

Station Type Date Time Source
DAAT TAF 2020/08/15 06:33 UTC NOAA

TAF DAAT 150500Z 1506/1606 10014KT 9999 FEW046 PROB40
TEMPO 1507/1511 12015G25KT 4000 DRSA PROB30
TEMPO 1514/1520 FEW040CB FEW046TCU
BECMG 1515/1518 VRB02KT
BECMG 1523/1602 10010KT

Example: see airport list